sensor_id;sensor_type;location;lat;lon;timestamp;temperature;humidity
74661;SHT31;63191;39.566;2.654;2023-07-16T00:01:45;27.07;78.49
74661;SHT31;63191;39.566;2.654;2023-07-16T00:04:11;27.07;78.57
74661;SHT31;63191;39.566;2.654;2023-07-16T00:06:37;27.08;78.66
74661;SHT31;63191;39.566;2.654;2023-07-16T00:09:02;27.15;78.70
74661;SHT31;63191;39.566;2.654;2023-07-16T00:11:28;27.21;78.62
74661;SHT31;63191;39.566;2.654;2023-07-16T00:13:54;27.29;78.50
74661;SHT31;63191;39.566;2.654;2023-07-16T00:16:19;27.36;78.33
74661;SHT31;63191;39.566;2.654;2023-07-16T00:18:45;27.41;78.09
74661;SHT31;63191;39.566;2.654;2023-07-16T00:21:11;27.44;77.82
74661;SHT31;63191;39.566;2.654;2023-07-16T00:23:36;27.45;77.58
74661;SHT31;63191;39.566;2.654;2023-07-16T00:26:02;27.46;77.41
74661;SHT31;63191;39.566;2.654;2023-07-16T00:28:29;27.46;77.22
74661;SHT31;63191;39.566;2.654;2023-07-16T00:30:55;27.47;77.07
74661;SHT31;63191;39.566;2.654;2023-07-16T00:33:20;27.47;76.96
74661;SHT31;63191;39.566;2.654;2023-07-16T00:35:49;27.47;76.83
74661;SHT31;63191;39.566;2.654;2023-07-16T00:38:19;27.45;76.62
74661;SHT31;63191;39.566;2.654;2023-07-16T00:40:45;27.40;76.57
74661;SHT31;63191;39.566;2.654;2023-07-16T00:43:12;27.32;76.61
74661;SHT31;63191;39.566;2.654;2023-07-16T00:45:38;27.25;76.68
74661;SHT31;63191;39.566;2.654;2023-07-16T00:48:05;27.16;76.71
74661;SHT31;63191;39.566;2.654;2023-07-16T00:50:33;27.08;76.70
74661;SHT31;63191;39.566;2.654;2023-07-16T00:53:05;27.02;76.70
74661;SHT31;63191;39.566;2.654;2023-07-16T00:55:32;26.96;76.70
74661;SHT31;63191;39.566;2.654;2023-07-16T00:58:02;26.92;76.72
74661;SHT31;63191;39.566;2.654;2023-07-16T01:00:35;26.86;76.79
74661;SHT31;63191;39.566;2.654;2023-07-16T01:03:04;26.80;76.82
74661;SHT31;63191;39.566;2.654;2023-07-16T01:08:32;26.68;76.81
74661;SHT31;63191;39.566;2.654;2023-07-16T01:11:04;26.61;76.92
74661;SHT31;63191;39.566;2.654;2023-07-16T01:13:30;26.57;76.98
74661;SHT31;63191;39.566;2.654;2023-07-16T01:15:57;26.53;77.04
74661;SHT31;63191;39.566;2.654;2023-07-16T01:18:22;26.49;77.14
74661;SHT31;63191;39.566;2.654;2023-07-16T01:20:48;26.45;77.20
74661;SHT31;63191;39.566;2.654;2023-07-16T01:23:24;26.42;77.27
74661;SHT31;63191;39.566;2.654;2023-07-16T01:26:02;26.40;77.39
74661;SHT31;63191;39.566;2.654;2023-07-16T01:31:33;26.37;77.79
74661;SHT31;63191;39.566;2.654;2023-07-16T01:33:59;26.36;77.83
74661;SHT31;63191;39.566;2.654;2023-07-16T01:36:29;26.34;77.88
74661;SHT31;63191;39.566;2.654;2023-07-16T01:38:56;26.32;77.91
74661;SHT31;63191;39.566;2.654;2023-07-16T01:41:22;26.31;78.01
74661;SHT31;63191;39.566;2.654;2023-07-16T01:43:49;26.30;78.17
74661;SHT31;63191;39.566;2.654;2023-07-16T01:46:15;26.31;78.20
74661;SHT31;63191;39.566;2.654;2023-07-16T01:48:41;26.31;78.24
74661;SHT31;63191;39.566;2.654;2023-07-16T01:51:07;26.31;78.34
74661;SHT31;63191;39.566;2.654;2023-07-16T01:53:33;26.33;78.57
74661;SHT31;63191;39.566;2.654;2023-07-16T01:56:00;26.34;78.60
74661;SHT31;63191;39.566;2.654;2023-07-16T01:58:27;26.34;78.60
74661;SHT31;63191;39.566;2.654;2023-07-16T02:00:53;26.33;78.53
74661;SHT31;63191;39.566;2.654;2023-07-16T02:03:19;26.34;78.45
74661;SHT31;63191;39.566;2.654;2023-07-16T02:05:44;26.33;78.40
74661;SHT31;63191;39.566;2.654;2023-07-16T02:08:10;26.34;78.40
74661;SHT31;63191;39.566;2.654;2023-07-16T02:10:36;26.33;78.37
74661;SHT31;63191;39.566;2.654;2023-07-16T02:13:01;26.34;78.38
74661;SHT31;63191;39.566;2.654;2023-07-16T02:15:27;26.34;78.40
74661;SHT31;63191;39.566;2.654;2023-07-16T02:17:53;26.33;78.40
74661;SHT31;63191;39.566;2.654;2023-07-16T02:20:18;26.31;78.47
74661;SHT31;63191;39.566;2.654;2023-07-16T02:22:44;26.32;78.42
74661;SHT31;63191;39.566;2.654;2023-07-16T02:25:10;26.33;78.50
74661;SHT31;63191;39.566;2.654;2023-07-16T02:27:36;26.34;78.56
74661;SHT31;63191;39.566;2.654;2023-07-16T02:30:01;26.35;78.60
74661;SHT31;63191;39.566;2.654;2023-07-16T02:32:27;26.35;78.52
74661;SHT31;63191;39.566;2.654;2023-07-16T02:34:53;26.35;78.51
74661;SHT31;63191;39.566;2.654;2023-07-16T02:37:19;26.34;78.51
74661;SHT31;63191;39.566;2.654;2023-07-16T02:39:45;26.36;78.54
74661;SHT31;63191;39.566;2.654;2023-07-16T02:42:13;26.36;78.51
74661;SHT31;63191;39.566;2.654;2023-07-16T02:44:39;26.36;78.48
74661;SHT31;63191;39.566;2.654;2023-07-16T02:47:09;26.36;78.40
74661;SHT31;63191;39.566;2.654;2023-07-16T02:49:36;26.36;78.40
74661;SHT31;63191;39.566;2.654;2023-07-16T02:52:03;26.37;78.40
74661;SHT31;63191;39.566;2.654;2023-07-16T02:54:31;26.38;78.44
74661;SHT31;63191;39.566;2.654;2023-07-16T02:56:57;26.37;78.41
74661;SHT31;63191;39.566;2.654;2023-07-16T02:59:23;26.37;78.38
74661;SHT31;63191;39.566;2.654;2023-07-16T03:01:49;26.35;78.34
74661;SHT31;63191;39.566;2.654;2023-07-16T03:04:16;26.33;78.39
74661;SHT31;63191;39.566;2.654;2023-07-16T03:06:41;26.33;78.44
74661;SHT31;63191;39.566;2.654;2023-07-16T03:09:07;26.31;78.54
74661;SHT31;63191;39.566;2.654;2023-07-16T03:11:33;26.32;78.64
74661;SHT31;63191;39.566;2.654;2023-07-16T03:13:58;26.32;78.77
74661;SHT31;63191;39.566;2.654;2023-07-16T03:16:24;26.33;78.77
74661;SHT31;63191;39.566;2.654;2023-07-16T03:18:50;26.34;78.80
74661;SHT31;63191;39.566;2.654;2023-07-16T03:21:15;26.35;78.80
74661;SHT31;63191;39.566;2.654;2023-07-16T03:23:41;26.36;78.82
74661;SHT31;63191;39.566;2.654;2023-07-16T03:26:07;26.38;78.90
74661;SHT31;63191;39.566;2.654;2023-07-16T03:28:33;26.40;78.91
74661;SHT31;63191;39.566;2.654;2023-07-16T03:30:59;26.42;78.90
74661;SHT31;63191;39.566;2.654;2023-07-16T03:33:25;26.44;78.82
74661;SHT31;63191;39.566;2.654;2023-07-16T03:35:51;26.44;78.87
74661;SHT31;63191;39.566;2.654;2023-07-16T03:38:17;26.44;78.80
74661;SHT31;63191;39.566;2.654;2023-07-16T03:40:45;26.45;78.78
74661;SHT31;63191;39.566;2.654;2023-07-16T03:43:14;26.48;78.79
74661;SHT31;63191;39.566;2.654;2023-07-16T03:45:40;26.50;78.75
74661;SHT31;63191;39.566;2.654;2023-07-16T03:48:06;26.51;78.72
74661;SHT31;63191;39.566;2.654;2023-07-16T03:50:32;26.53;78.71
74661;SHT31;63191;39.566;2.654;2023-07-16T03:52:58;26.55;78.70
74661;SHT31;63191;39.566;2.654;2023-07-16T03:55:24;26.54;78.70
74661;SHT31;63191;39.566;2.654;2023-07-16T03:57:50;26.53;78.72
74661;SHT31;63191;39.566;2.654;2023-07-16T04:00:16;26.51;78.80
74661;SHT31;63191;39.566;2.654;2023-07-16T04:02:41;26.47;78.86
74661;SHT31;63191;39.566;2.654;2023-07-16T04:05:07;26.44;78.85
74661;SHT31;63191;39.566;2.654;2023-07-16T04:07:34;26.41;78.95
74661;SHT31;63191;39.566;2.654;2023-07-16T04:09:59;26.37;79.04
74661;SHT31;63191;39.566;2.654;2023-07-16T04:12:25;26.34;79.10
74661;SHT31;63191;39.566;2.654;2023-07-16T04:14:55;26.31;79.09
74661;SHT31;63191;39.566;2.654;2023-07-16T04:17:23;26.27;79.16
74661;SHT31;63191;39.566;2.654;2023-07-16T04:19:49;26.23;79.20
74661;SHT31;63191;39.566;2.654;2023-07-16T04:22:15;26.19;79.28
74661;SHT31;63191;39.566;2.654;2023-07-16T04:24:41;26.15;79.40
74661;SHT31;63191;39.566;2.654;2023-07-16T04:27:07;26.13;79.45
74661;SHT31;63191;39.566;2.654;2023-07-16T04:29:33;26.10;79.54
74661;SHT31;63191;39.566;2.654;2023-07-16T04:31:58;26.08;79.64
74661;SHT31;63191;39.566;2.654;2023-07-16T04:34:24;26.06;79.70
74661;SHT31;63191;39.566;2.654;2023-07-16T04:36:50;26.05;79.73
74661;SHT31;63191;39.566;2.654;2023-07-16T04:39:15;26.03;79.77
74661;SHT31;63191;39.566;2.654;2023-07-16T04:41:41;26.02;79.85
74661;SHT31;63191;39.566;2.654;2023-07-16T04:44:07;26.00;79.97
74661;SHT31;63191;39.566;2.654;2023-07-16T04:46:33;25.98;80.01
74661;SHT31;63191;39.566;2.654;2023-07-16T04:48:58;25.96;80.10
74661;SHT31;63191;39.566;2.654;2023-07-16T04:51:24;25.95;80.11
74661;SHT31;63191;39.566;2.654;2023-07-16T04:53:50;25.95;80.13
74661;SHT31;63191;39.566;2.654;2023-07-16T04:56:16;25.96;80.19
74661;SHT31;63191;39.566;2.654;2023-07-16T04:58:42;25.98;80.21
74661;SHT31;63191;39.566;2.654;2023-07-16T05:01:08;26.00;80.30
74661;SHT31;63191;39.566;2.654;2023-07-16T05:03:35;26.01;80.30
74661;SHT31;63191;39.566;2.654;2023-07-16T05:06:01;26.03;80.30
74661;SHT31;63191;39.566;2.654;2023-07-16T05:08:28;26.08;80.39
74661;SHT31;63191;39.566;2.654;2023-07-16T05:10:53;26.16;80.43
74661;SHT31;63191;39.566;2.654;2023-07-16T05:13:20;26.22;80.37
74661;SHT31;63191;39.566;2.654;2023-07-16T05:15:46;26.31;80.30
74661;SHT31;63191;39.566;2.654;2023-07-16T05:18:12;26.41;80.21
74661;SHT31;63191;39.566;2.654;2023-07-16T05:20:38;26.49;79.96
74661;SHT31;63191;39.566;2.654;2023-07-16T05:23:04;26.55;79.73
74661;SHT31;63191;39.566;2.654;2023-07-16T05:25:29;26.63;79.57
74661;SHT31;63191;39.566;2.654;2023-07-16T05:27:55;26.72;79.44
74661;SHT31;63191;39.566;2.654;2023-07-16T05:30:21;26.83;79.30
74661;SHT31;63191;39.566;2.654;2023-07-16T05:32:47;26.91;79.09
74661;SHT31;63191;39.566;2.654;2023-07-16T05:35:13;26.91;78.89
74661;SHT31;63191;39.566;2.654;2023-07-16T05:37:39;26.91;78.76
74661;SHT31;63191;39.566;2.654;2023-07-16T05:40:04;26.89;78.70
74661;SHT31;63191;39.566;2.654;2023-07-16T05:42:33;26.89;78.73
74661;SHT31;63191;39.566;2.654;2023-07-16T05:44:59;26.90;78.74
74661;SHT31;63191;39.566;2.654;2023-07-16T05:47:25;26.93;78.74
74661;SHT31;63191;39.566;2.654;2023-07-16T05:49:51;27.01;78.64
74661;SHT31;63191;39.566;2.654;2023-07-16T05:52:17;27.13;78.47
74661;SHT31;63191;39.566;2.654;2023-07-16T05:54:44;27.25;78.21
74661;SHT31;63191;39.566;2.654;2023-07-16T05:57:10;27.34;77.95
74661;SHT31;63191;39.566;2.654;2023-07-16T05:59:36;27.40;77.70
74661;SHT31;63191;39.566;2.654;2023-07-16T06:02:02;27.48;77.48
74661;SHT31;63191;39.566;2.654;2023-07-16T06:04:29;27.58;77.27
74661;SHT31;63191;39.566;2.654;2023-07-16T06:06:56;27.69;76.99
74661;SHT31;63191;39.566;2.654;2023-07-16T06:09:22;27.84;76.77
74661;SHT31;63191;39.566;2.654;2023-07-16T06:11:48;28.06;76.44
74661;SHT31;63191;39.566;2.654;2023-07-16T06:14:14;28.29;75.89
74661;SHT31;63191;39.566;2.654;2023-07-16T06:16:41;28.51;75.17
74661;SHT31;63191;39.566;2.654;2023-07-16T06:19:07;28.68;74.64
74661;SHT31;63191;39.566;2.654;2023-07-16T06:21:33;28.83;73.91
74661;SHT31;63191;39.566;2.654;2023-07-16T06:23:59;28.85;73.13
74661;SHT31;63191;39.566;2.654;2023-07-16T06:26:25;28.86;72.89
74661;SHT31;63191;39.566;2.654;2023-07-16T06:28:51;28.91;72.36
74661;SHT31;63191;39.566;2.654;2023-07-16T06:31:17;28.93;72.22
74661;SHT31;63191;39.566;2.654;2023-07-16T06:33:43;28.96;71.96
74661;SHT31;63191;39.566;2.654;2023-07-16T06:36:11;28.94;71.61
74661;SHT31;63191;39.566;2.654;2023-07-16T06:38:38;28.83;71.60
74661;SHT31;63191;39.566;2.654;2023-07-16T06:41:03;28.70;71.73
74661;SHT31;63191;39.566;2.654;2023-07-16T06:43:29;28.59;71.93
74661;SHT31;63191;39.566;2.654;2023-07-16T06:45:55;28.55;72.06
74661;SHT31;63191;39.566;2.654;2023-07-16T06:48:22;28.58;72.11
74661;SHT31;63191;39.566;2.654;2023-07-16T06:50:49;28.63;72.11
74661;SHT31;63191;39.566;2.654;2023-07-16T06:53:15;28.66;71.92
74661;SHT31;63191;39.566;2.654;2023-07-16T06:55:41;28.67;71.81
74661;SHT31;63191;39.566;2.654;2023-07-16T06:58:09;28.71;71.88
74661;SHT31;63191;39.566;2.654;2023-07-16T07:00:36;28.86;71.83
74661;SHT31;63191;39.566;2.654;2023-07-16T07:03:02;29.05;71.34
74661;SHT31;63191;39.566;2.654;2023-07-16T07:05:28;29.17;70.89
74661;SHT31;63191;39.566;2.654;2023-07-16T07:07:53;29.29;70.56
74661;SHT31;63191;39.566;2.654;2023-07-16T07:10:19;29.38;70.13
74661;SHT31;63191;39.566;2.654;2023-07-16T07:12:45;29.49;69.88
74661;SHT31;63191;39.566;2.654;2023-07-16T07:15:11;29.53;69.77
74661;SHT31;63191;39.566;2.654;2023-07-16T07:17:37;29.60;69.51
74661;SHT31;63191;39.566;2.654;2023-07-16T07:20:03;29.71;69.21
74661;SHT31;63191;39.566;2.654;2023-07-16T07:22:29;29.88;68.72
74661;SHT31;63191;39.566;2.654;2023-07-16T07:24:56;30.15;68.59
74661;SHT31;63191;39.566;2.654;2023-07-16T07:27:21;30.50;67.98
74661;SHT31;63191;39.566;2.654;2023-07-16T07:29:47;30.81;67.30
74661;SHT31;63191;39.566;2.654;2023-07-16T07:32:17;30.86;66.14
74661;SHT31;63191;39.566;2.654;2023-07-16T07:34:45;30.73;65.79
74661;SHT31;63191;39.566;2.654;2023-07-16T07:37:11;30.54;65.71
74661;SHT31;63191;39.566;2.654;2023-07-16T07:39:36;30.41;66.02
74661;SHT31;63191;39.566;2.654;2023-07-16T07:42:03;30.42;66.07
74661;SHT31;63191;39.566;2.654;2023-07-16T07:44:29;30.46;66.22
74661;SHT31;63191;39.566;2.654;2023-07-16T07:46:55;30.58;66.51
74661;SHT31;63191;39.566;2.654;2023-07-16T07:49:20;30.75;66.36
74661;SHT31;63191;39.566;2.654;2023-07-16T07:51:46;30.92;65.73
74661;SHT31;63191;39.566;2.654;2023-07-16T07:54:14;31.03;65.24
74661;SHT31;63191;39.566;2.654;2023-07-16T07:56:41;31.13;64.71
74661;SHT31;63191;39.566;2.654;2023-07-16T07:59:07;31.18;64.14
74661;SHT31;63191;39.566;2.654;2023-07-16T08:01:32;31.20;63.90
74661;SHT31;63191;39.566;2.654;2023-07-16T08:03:58;31.25;63.71
74661;SHT31;63191;39.566;2.654;2023-07-16T08:06:24;31.37;63.63
74661;SHT31;63191;39.566;2.654;2023-07-16T08:08:51;31.56;63.45
74661;SHT31;63191;39.566;2.654;2023-07-16T08:11:17;31.74;63.08
74661;SHT31;63191;39.566;2.654;2023-07-16T08:13:43;31.80;62.39
74661;SHT31;63191;39.566;2.654;2023-07-16T08:16:10;31.72;62.31
74661;SHT31;63191;39.566;2.654;2023-07-16T08:18:35;31.60;62.43
74661;SHT31;63191;39.566;2.654;2023-07-16T08:21:01;31.41;63.09
74661;SHT31;63191;39.566;2.654;2023-07-16T08:23:27;31.31;63.37
74661;SHT31;63191;39.566;2.654;2023-07-16T08:25:52;31.26;63.21
74661;SHT31;63191;39.566;2.654;2023-07-16T08:28:18;31.21;63.15
74661;SHT31;63191;39.566;2.654;2023-07-16T08:30:47;31.22;62.87
74661;SHT31;63191;39.566;2.654;2023-07-16T08:33:13;31.39;62.93
74661;SHT31;63191;39.566;2.654;2023-07-16T08:35:40;31.66;62.58
74661;SHT31;63191;39.566;2.654;2023-07-16T08:38:07;31.71;61.86
74661;SHT31;63191;39.566;2.654;2023-07-16T08:40:36;31.65;61.60
74661;SHT31;63191;39.566;2.654;2023-07-16T08:43:04;31.59;61.69
74661;SHT31;63191;39.566;2.654;2023-07-16T08:45:32;31.63;61.61
74661;SHT31;63191;39.566;2.654;2023-07-16T08:48:04;31.72;61.45
74661;SHT31;63191;39.566;2.654;2023-07-16T08:50:32;31.85;61.38
74661;SHT31;63191;39.566;2.654;2023-07-16T08:53:01;31.97;60.88
74661;SHT31;63191;39.566;2.654;2023-07-16T08:55:27;32.08;60.63
74661;SHT31;63191;39.566;2.654;2023-07-16T08:57:53;32.22;60.52
74661;SHT31;63191;39.566;2.654;2023-07-16T09:00:18;32.37;60.22
74661;SHT31;63191;39.566;2.654;2023-07-16T09:02:45;32.55;59.58
74661;SHT31;63191;39.566;2.654;2023-07-16T09:05:12;32.71;58.81
74661;SHT31;63191;39.566;2.654;2023-07-16T09:07:40;32.90;58.43
74661;SHT31;63191;39.566;2.654;2023-07-16T09:10:06;33.01;57.59
74661;SHT31;63191;39.566;2.654;2023-07-16T09:12:32;33.14;57.61
74661;SHT31;63191;39.566;2.654;2023-07-16T09:14:59;33.35;57.58
74661;SHT31;63191;39.566;2.654;2023-07-16T09:17:25;33.50;56.45
74661;SHT31;63191;39.566;2.654;2023-07-16T09:19:51;33.66;56.04
74661;SHT31;63191;39.566;2.654;2023-07-16T09:22:20;33.80;55.76
74661;SHT31;63191;39.566;2.654;2023-07-16T09:24:46;33.97;55.25
74661;SHT31;63191;39.566;2.654;2023-07-16T09:27:13;34.06;54.64
74661;SHT31;63191;39.566;2.654;2023-07-16T09:29:39;34.14;54.36
74661;SHT31;63191;39.566;2.654;2023-07-16T09:32:05;34.24;53.97
74661;SHT31;63191;39.566;2.654;2023-07-16T09:34:31;34.42;53.13
74661;SHT31;63191;39.566;2.654;2023-07-16T09:36:58;34.51;52.53
74661;SHT31;63191;39.566;2.654;2023-07-16T09:39:25;34.60;52.80
74661;SHT31;63191;39.566;2.654;2023-07-16T09:41:52;34.69;52.32
74661;SHT31;63191;39.566;2.654;2023-07-16T09:44:19;34.73;51.75
74661;SHT31;63191;39.566;2.654;2023-07-16T09:46:45;34.79;51.87
74661;SHT31;63191;39.566;2.654;2023-07-16T09:49:12;34.81;51.58
74661;SHT31;63191;39.566;2.654;2023-07-16T09:51:40;34.84;51.58
74661;SHT31;63191;39.566;2.654;2023-07-16T09:54:08;35.01;51.50
74661;SHT31;63191;39.566;2.654;2023-07-16T09:57:00;35.20;51.29
74661;SHT31;63191;39.566;2.654;2023-07-16T09:59:29;35.32;50.10
74661;SHT31;63191;39.566;2.654;2023-07-16T10:01:58;35.40;49.71
74661;SHT31;63191;39.566;2.654;2023-07-16T10:04:25;35.50;49.25
74661;SHT31;63191;39.566;2.654;2023-07-16T10:06:55;35.61;49.06
74661;SHT31;63191;39.566;2.654;2023-07-16T10:09:37;35.74;48.79
74661;SHT31;63191;39.566;2.654;2023-07-16T10:12:11;35.91;48.83
74661;SHT31;63191;39.566;2.654;2023-07-16T10:14:57;36.08;48.30
74661;SHT31;63191;39.566;2.654;2023-07-16T10:17:24;36.18;47.94
74661;SHT31;63191;39.566;2.654;2023-07-16T10:20:01;36.23;47.66
74661;SHT31;63191;39.566;2.654;2023-07-16T10:22:39;36.33;46.92
74661;SHT31;63191;39.566;2.654;2023-07-16T10:25:10;36.43;46.49
74661;SHT31;63191;39.566;2.654;2023-07-16T10:27:49;36.51;46.05
74661;SHT31;63191;39.566;2.654;2023-07-16T10:30:17;36.56;46.20
74661;SHT31;63191;39.566;2.654;2023-07-16T10:32:43;36.67;46.09
74661;SHT31;63191;39.566;2.654;2023-07-16T10:35:09;36.76;45.96
74661;SHT31;63191;39.566;2.654;2023-07-16T10:37:36;36.88;45.93
74661;SHT31;63191;39.566;2.654;2023-07-16T10:40:03;36.98;45.66
74661;SHT31;63191;39.566;2.654;2023-07-16T10:42:30;37.10;45.30
74661;SHT31;63191;39.566;2.654;2023-07-16T10:44:58;37.20;45.19
74661;SHT31;63191;39.566;2.654;2023-07-16T10:49:57;37.29;44.38
74661;SHT31;63191;39.566;2.654;2023-07-16T10:52:23;37.32;44.26
74661;SHT31;63191;39.566;2.654;2023-07-16T10:54:50;37.28;43.88
74661;SHT31;63191;39.566;2.654;2023-07-16T10:57:19;37.31;44.19
74661;SHT31;63191;39.566;2.654;2023-07-16T10:59:55;37.40;43.83
74661;SHT31;63191;39.566;2.654;2023-07-16T11:02:24;37.52;43.51
74661;SHT31;63191;39.566;2.654;2023-07-16T11:04:51;37.60;42.97
74661;SHT31;63191;39.566;2.654;2023-07-16T11:07:22;37.66;43.53
74661;SHT31;63191;39.566;2.654;2023-07-16T11:09:51;37.83;43.72
74661;SHT31;63191;39.566;2.654;2023-07-16T11:12:20;37.91;43.39
74661;SHT31;63191;39.566;2.654;2023-07-16T11:14:49;37.87;43.10
74661;SHT31;63191;39.566;2.654;2023-07-16T11:17:17;37.90;43.92
74661;SHT31;63191;39.566;2.654;2023-07-16T11:19:45;37.95;44.51
74661;SHT31;63191;39.566;2.654;2023-07-16T11:22:13;38.02;45.04
74661;SHT31;63191;39.566;2.654;2023-07-16T11:24:41;37.97;46.63
74661;SHT31;63191;39.566;2.654;2023-07-16T11:27:19;37.71;48.54
74661;SHT31;63191;39.566;2.654;2023-07-16T11:32:33;37.01;50.96
74661;SHT31;63191;39.566;2.654;2023-07-16T11:35:02;36.60;51.64
74661;SHT31;63191;39.566;2.654;2023-07-16T11:37:31;36.25;51.71
74661;SHT31;63191;39.566;2.654;2023-07-16T11:40:06;35.95;52.44
74661;SHT31;63191;39.566;2.654;2023-07-16T11:42:37;35.70;53.28
74661;SHT31;63191;39.566;2.654;2023-07-16T11:45:04;35.52;53.81
74661;SHT31;63191;39.566;2.654;2023-07-16T11:47:40;35.44;54.55
74661;SHT31;63191;39.566;2.654;2023-07-16T11:50:06;35.35;54.90
74661;SHT31;63191;39.566;2.654;2023-07-16T11:52:32;35.30;55.13
74661;SHT31;63191;39.566;2.654;2023-07-16T11:54:58;35.26;55.34
74661;SHT31;63191;39.566;2.654;2023-07-16T11:57:25;35.17;55.75
74661;SHT31;63191;39.566;2.654;2023-07-16T11:59:51;35.23;55.59
74661;SHT31;63191;39.566;2.654;2023-07-16T12:02:16;35.33;55.45
74661;SHT31;63191;39.566;2.654;2023-07-16T12:04:43;35.49;55.24
74661;SHT31;63191;39.566;2.654;2023-07-16T12:07:08;35.75;54.89
74661;SHT31;63191;39.566;2.654;2023-07-16T12:09:34;36.23;53.65
74661;SHT31;63191;39.566;2.654;2023-07-16T12:12:00;36.81;52.89
74661;SHT31;63191;39.566;2.654;2023-07-16T12:14:26;37.65;51.30
74661;SHT31;63191;39.566;2.654;2023-07-16T12:16:55;38.52;48.93
74661;SHT31;63191;39.566;2.654;2023-07-16T12:19:21;39.23;46.98
74661;SHT31;63191;39.566;2.654;2023-07-16T12:21:47;39.84;45.84
74661;SHT31;63191;39.566;2.654;2023-07-16T12:24:14;40.41;44.54
74661;SHT31;63191;39.566;2.654;2023-07-16T12:26:39;40.97;43.53
74661;SHT31;63191;39.566;2.654;2023-07-16T12:29:05;41.57;42.69
74661;SHT31;63191;39.566;2.654;2023-07-16T12:31:31;41.95;41.37
74661;SHT31;63191;39.566;2.654;2023-07-16T12:33:57;42.35;40.68
74661;SHT31;63191;39.566;2.654;2023-07-16T12:36:24;42.86;39.74
74661;SHT31;63191;39.566;2.654;2023-07-16T12:38:50;43.39;38.99
74661;SHT31;63191;39.566;2.654;2023-07-16T12:41:16;43.79;38.20
74661;SHT31;63191;39.566;2.654;2023-07-16T12:43:42;44.03;37.35
74661;SHT31;63191;39.566;2.654;2023-07-16T12:46:07;44.45;37.43
74661;SHT31;63191;39.566;2.654;2023-07-16T12:48:34;44.75;36.45
74661;SHT31;63191;39.566;2.654;2023-07-16T12:50:59;44.91;36.11
74661;SHT31;63191;39.566;2.654;2023-07-16T12:53:25;45.12;35.96
74661;SHT31;63191;39.566;2.654;2023-07-16T12:55:52;45.39;35.66
74661;SHT31;63191;39.566;2.654;2023-07-16T12:58:18;45.59;35.34
74661;SHT31;63191;39.566;2.654;2023-07-16T13:00:44;45.76;34.99
74661;SHT31;63191;39.566;2.654;2023-07-16T13:03:10;45.93;34.65
74661;SHT31;63191;39.566;2.654;2023-07-16T13:05:40;46.13;34.36
74661;SHT31;63191;39.566;2.654;2023-07-16T13:08:06;46.35;34.04
74661;SHT31;63191;39.566;2.654;2023-07-16T13:10:32;46.58;33.60
74661;SHT31;63191;39.566;2.654;2023-07-16T13:12:58;46.87;33.37
74661;SHT31;63191;39.566;2.654;2023-07-16T13:15:24;47.23;33.04
74661;SHT31;63191;39.566;2.654;2023-07-16T13:17:49;47.66;32.59
74661;SHT31;63191;39.566;2.654;2023-07-16T13:20:15;47.87;31.92
74661;SHT31;63191;39.566;2.654;2023-07-16T13:22:42;47.95;31.89
74661;SHT31;63191;39.566;2.654;2023-07-16T13:25:08;48.32;31.76
74661;SHT31;63191;39.566;2.654;2023-07-16T13:27:34;48.69;31.22
74661;SHT31;63191;39.566;2.654;2023-07-16T13:30:00;48.93;30.84
74661;SHT31;63191;39.566;2.654;2023-07-16T13:32:25;48.98;30.41
74661;SHT31;63191;39.566;2.654;2023-07-16T13:34:51;49.25;30.44
74661;SHT31;63191;39.566;2.654;2023-07-16T13:37:17;49.58;29.88
74661;SHT31;63191;39.566;2.654;2023-07-16T13:39:42;49.88;29.70
74661;SHT31;63191;39.566;2.654;2023-07-16T13:42:08;50.07;29.42
74661;SHT31;63191;39.566;2.654;2023-07-16T13:44:36;50.33;29.15
74661;SHT31;63191;39.566;2.654;2023-07-16T13:47:02;50.82;28.99
74661;SHT31;63191;39.566;2.654;2023-07-16T13:49:29;50.84;28.33
74661;SHT31;63191;39.566;2.654;2023-07-16T13:51:55;50.58;28.26
74661;SHT31;63191;39.566;2.654;2023-07-16T13:54:21;50.43;28.30
74661;SHT31;63191;39.566;2.654;2023-07-16T13:56:47;49.37;29.01
74661;SHT31;63191;39.566;2.654;2023-07-16T13:59:14;48.63;30.09
74661;SHT31;63191;39.566;2.654;2023-07-16T14:01:40;46.99;31.74
74661;SHT31;63191;39.566;2.654;2023-07-16T14:04:06;45.42;33.79
74661;SHT31;63191;39.566;2.654;2023-07-16T14:06:32;44.80;34.96
74661;SHT31;63191;39.566;2.654;2023-07-16T14:08:58;44.95;34.68
74661;SHT31;63191;39.566;2.654;2023-07-16T14:11:25;43.95;35.97
74661;SHT31;63191;39.566;2.654;2023-07-16T14:13:51;43.73;36.54
74661;SHT31;63191;39.566;2.654;2023-07-16T14:16:18;44.20;36.43
74661;SHT31;63191;39.566;2.654;2023-07-16T14:18:50;45.37;35.10
74661;SHT31;63191;39.566;2.654;2023-07-16T14:21:18;45.73;34.23
74661;SHT31;63191;39.566;2.654;2023-07-16T14:23:45;45.25;35.15
74661;SHT31;63191;39.566;2.654;2023-07-16T14:26:11;45.48;34.90
74661;SHT31;63191;39.566;2.654;2023-07-16T14:28:37;46.20;34.33
74661;SHT31;63191;39.566;2.654;2023-07-16T14:31:03;46.59;33.77
74661;SHT31;63191;39.566;2.654;2023-07-16T14:33:29;47.01;33.30
74661;SHT31;63191;39.566;2.654;2023-07-16T14:35:56;46.99;32.84
74661;SHT31;63191;39.566;2.654;2023-07-16T14:38:23;47.11;33.04
74661;SHT31;63191;39.566;2.654;2023-07-16T14:40:48;47.88;32.21
74661;SHT31;63191;39.566;2.654;2023-07-16T14:43:16;48.48;31.58
74661;SHT31;63191;39.566;2.654;2023-07-16T14:45:43;49.02;30.79
74661;SHT31;63191;39.566;2.654;2023-07-16T14:48:09;49.38;30.40
74661;SHT31;63191;39.566;2.654;2023-07-16T14:50:35;49.64;29.98
74661;SHT31;63191;39.566;2.654;2023-07-16T14:53:00;49.87;29.78
74661;SHT31;63191;39.566;2.654;2023-07-16T14:55:26;49.54;29.70
74661;SHT31;63191;39.566;2.654;2023-07-16T14:57:52;49.55;30.06
74661;SHT31;63191;39.566;2.654;2023-07-16T15:00:19;49.91;29.65
74661;SHT31;63191;39.566;2.654;2023-07-16T15:02:45;49.76;29.37
74661;SHT31;63191;39.566;2.654;2023-07-16T15:05:10;49.76;29.13
74661;SHT31;63191;39.566;2.654;2023-07-16T15:07:36;49.86;29.50
74661;SHT31;63191;39.566;2.654;2023-07-16T15:10:05;50.19;29.59
74661;SHT31;63191;39.566;2.654;2023-07-16T15:12:32;50.48;29.15
74661;SHT31;63191;39.566;2.654;2023-07-16T15:14:58;50.61;28.90
74661;SHT31;63191;39.566;2.654;2023-07-16T15:17:24;50.59;28.64
74661;SHT31;63191;39.566;2.654;2023-07-16T15:19:51;50.59;28.49
74661;SHT31;63191;39.566;2.654;2023-07-16T15:22:17;50.40;28.47
74661;SHT31;63191;39.566;2.654;2023-07-16T15:24:45;49.72;29.03
74661;SHT31;63191;39.566;2.654;2023-07-16T15:27:12;49.54;29.38
74661;SHT31;63191;39.566;2.654;2023-07-16T15:29:38;49.53;29.60
74661;SHT31;63191;39.566;2.654;2023-07-16T15:32:04;49.47;29.58
74661;SHT31;63191;39.566;2.654;2023-07-16T15:34:31;49.47;29.81
74661;SHT31;63191;39.566;2.654;2023-07-16T15:36:57;49.71;29.63
74661;SHT31;63191;39.566;2.654;2023-07-16T15:39:23;49.65;29.48